Time;durP1;ratioP1;P1;durP2;ratioP2;P2;SDS_P1;SDS_P2;PMS_P1;PMS_P2;Temp;Humidity;BMP_temperature;BMP_pressure;BME280_temperature;BME280_humidity;BME280_pressure;Samples;Min_cycle;Max_cycle;Signal;HPM_P1;HPM_P2
2022/12/19 00:00:40;;;;;;;29.60;15.52;;;;;;;;;;5082242;28;20230;-92
2022/12/19 00:03:08;;;;;;;31.30;15.90;;;;;;;;;;5081182;28;20234;-92
2022/12/19 00:05:39;;;;;;;38.42;16.48;;;;;;;;;;5082010;28;20256;-92
2022/12/19 00:08:17;;;;;;;26.15;14.57;;;-4.40;99.90;;;;;;5081443;28;20552;-92
2022/12/19 00:10:46;;;;;;;34.08;15.40;;;;;;;;;;5078041;28;20210;-91
2022/12/19 00:13:13;;;;;;;29.95;15.05;;;;;;;;;;5092956;28;20253;-91
2022/12/19 00:15:49;;;;;;;32.85;15.77;;;;;;;;;;5094802;28;20203;-91
2022/12/19 00:18:19;;;;;;;31.85;16.35;;;;;;;;;;5094707;28;20224;-92
2022/12/19 00:20:55;;;;;;;33.55;15.63;;;;;;;;;;5089222;28;20715;-92
2022/12/19 00:23:25;;;;;;;30.60;14.73;;;;;;;;;;5082622;28;20253;-92
2022/12/19 00:25:52;;;;;;;31.50;16.58;;;;;;;;;;5083177;28;20202;-88
2022/12/19 00:28:23;;;;;;;26.60;15.80;;;;;;;;;;5081732;28;20312;-91
2022/12/19 00:30:52;;;;;;;41.90;16.77;;;;;;;;;;5088167;28;20207;-90
2022/12/19 00:33:20;;;;;;;36.45;15.85;;;;;;;;;;5099011;28;20215;-91
2022/12/19 00:35:47;;;;;;;21.98;13.38;;;;;;;;;;5098756;28;20647;-91
2022/12/19 00:38:14;;;;;;;35.38;14.60;;;;;;;;;;5098431;28;20191;-90
2022/12/19 00:40:42;;;;;;;36.45;15.57;;;;;;;;;;5095225;28;20214;-89
2022/12/19 00:43:09;;;;;;;25.48;12.85;;;-4.30;99.90;;;;;;5089828;28;20780;-91
2022/12/19 00:45:38;;;;;;;19.98;14.07;;;-4.10;99.90;;;;;;5079174;28;20198;-90
2022/12/19 00:48:06;;;;;;;27.38;13.85;;;-4.20;99.90;;;;;;5079845;28;20670;-90
2022/12/19 00:50:34;;;;;;;37.63;16.25;;;;;;;;;;5079756;28;20323;-91
2022/12/19 00:53:01;;;;;;;22.83;14.60;;;-3.90;99.90;;;;;;5079411;28;20203;-89
2022/12/19 00:55:29;;;;;;;25.40;14.15;;;;;;;;;;5080084;28;20258;-90
2022/12/19 00:57:56;;;;;;;20.58;12.80;;;;;;;;;;5084073;28;20187;-90
2022/12/19 01:00:23;;;;;;;25.80;12.80;;;;;;;;;;5096811;28;20199;-89
2022/12/19 01:02:54;;;;;;;30.00;13.27;;;;;;;;;;5095727;28;20212;-89
2022/12/19 01:05:22;;;;;;;27.67;14.82;;;;;;;;;;5096948;28;20224;-90
2022/12/19 01:07:50;;;;;;;27.85;14.27;;;;;;;;;;5099067;28;20183;-90
2022/12/19 01:10:17;;;;;;;30.58;14.43;;;;;;;;;;5098968;28;20193;-89
2022/12/19 01:12:47;;;;;;;30.10;16.50;;;;;;;;;;5098873;28;20174;-89
2022/12/19 01:15:14;;;;;;;35.50;17.02;;;;;;;;;;5098938;28;20187;-89
2022/12/19 01:17:44;;;;;;;34.38;17.95;;;;;;;;;;5098918;28;20172;-90
2022/12/19 01:20:11;;;;;;;28.92;15.65;;;;;;;;;;5098932;28;20194;-90
2022/12/19 01:22:40;;;;;;;28.27;16.02;;;;;;;;;;5099092;28;20191;-90
2022/12/19 01:25:08;;;;;;;32.85;14.68;;;;;;;;;;5098342;28;20305;-91
2022/12/19 01:27:35;;;;;;;30.00;15.32;;;;;;;;;;5099043;28;20178;-92
2022/12/19 01:30:03;;;;;;;27.98;14.38;;;;;;;;;;5098876;28;20207;-91
2022/12/19 01:32:30;;;;;;;27.88;15.38;;;;;;;;;;5098827;28;20172;-91
2022/12/19 01:35:00;;;;;;;25.63;15.27;;;-4.10;99.90;;;;;;5098775;28;20208;-91
2022/12/19 01:37:27;;;;;;;25.27;15.77;;;;;;;;;;5098666;28;20184;-90
2022/12/19 01:39:56;;;;;;;26.85;15.80;;;;;;;;;;5098841;28;20232;-90
2022/12/19 01:42:23;;;;;;;28.70;15.52;;;;;;;;;;5098799;28;20199;-90
2022/12/19 01:45:04;;;;;;;33.00;17.30;;;;;;;;;;5098302;28;20265;-91
2022/12/19 01:47:32;;;;;;;32.25;17.00;;;;;;;;;;5097614;28;20173;-90
2022/12/19 01:50:00;;;;;;;28.13;14.15;;;;;;;;;;5098473;28;20305;-90
2022/12/19 01:52:27;;;;;;;31.17;15.25;;;;;;;;;;5095851;28;20207;-89
2022/12/19 01:54:55;;;;;;;27.75;14.18;;;-3.80;99.90;;;;;;5084334;28;20235;-90
2022/12/19 01:57:26;;;;;;;32.95;15.85;;;;;;;;;;5084208;28;20293;-90
2022/12/19 01:59:56;;;;;;;20.25;12.52;;;-4.10;99.90;;;;;;5083266;28;20203;-90
2022/12/19 02:06:23;;;;;;;30.38;14.15;;;-3.90;99.90;;;;;;5049229;28;20204;-85
2022/12/19 02:18:36;;;;;;;;;;;;;;;;;;;;;
2022/12/19 02:21:55;;;;;;;23.70;12.88;;;-3.80;99.90;;;;;;4973740;28;20283;-85
2022/12/19 02:25:08;;;;;;;28.35;14.80;;;-3.80;99.90;;;;;;5065395;28;20235;-85
2022/12/19 02:28:40;;;;;;;18.55;13.10;;;-3.80;94.80;;;;;;5065859;28;20275;-85
2022/12/19 02:59:22;;;;;;;20.95;11.55;;;-3.60;1.00;;;;;;4998316;28;20201;-84
2022/12/19 03:08:25;;;;;;;24.30;13.95;;;-3.50;1.00;;;;;;5078181;22;20240;-90
2022/12/19 03:10:57;;;;;;;30.05;15.10;;;-3.50;1.00;;;;;;5086271;28;20224;-90
2022/12/19 03:13:29;;;;;;;27.30;14.27;;;-3.50;1.00;;;;;;5084701;28;20235;-90
2022/12/19 03:15:58;;;;;;;31.25;15.77;;;-3.50;1.00;;;;;;5084418;28;20522;-92
2022/12/19 03:18:25;;;;;;;36.60;15.05;;;;;;;;;;5063974;28;20229;-90
2022/12/19 03:21:04;;;;;;;28.65;14.07;;;-3.50;1.00;;;;;;5066304;28;20231;-89
2022/12/19 03:23:32;;;;;;;23.27;12.23;;;;;;;;;;5065001;28;20228;-90
2022/12/19 03:26:05;;;;;;;32.22;15.68;;;-3.50;1.00;;;;;;5062654;28;20211;-90
2022/12/19 03:28:40;;;;;;;31.73;14.50;;;-3.50;1.00;;;;;;5071178;28;20204;-89
2022/12/19 03:31:11;;;;;;;29.80;14.05;;;-3.50;1.00;;;;;;5071556;28;20254;-90
2022/12/19 03:33:43;;;;;;;28.38;17.05;;;-3.50;1.00;;;;;;5066681;28;20200;-92
2022/12/19 03:36:19;;;;;;;31.25;14.73;;;-3.40;1.00;;;;;;5065766;28;20216;-90
2022/12/19 03:38:48;;;;;;;24.55;14.40;;;-3.50;1.00;;;;;;5062144;28;20299;-91
2022/12/19 03:43:07;;;;;;;27.83;12.80;;;-3.50;1.00;;;;;;5063544;28;20210;-90
2022/12/19 03:44:10;;;;;;;24.75;13.73;;;-3.50;1.00;;;;;;5061137;28;20205;-90
2022/12/19 03:46:43;;;;;;;27.52;14.35;;;-3.40;1.00;;;;;;5067814;28;20257;-90
2022/12/19 03:49:10;;;;;;;36.10;17.15;;;;;;;;;;5080389;28;20224;-90
2022/12/19 03:51:46;;;;;;;30.38;15.50;;;-3.40;1.00;;;;;;5073626;28;20662;-90
2022/12/19 03:54:17;;;;;;;31.73;16.65;;;-3.40;1.00;;;;;;5062094;28;20570;-90
2022/12/19 03:56:50;;;;;;;29.48;14.18;;;-3.20;1.00;;;;;;5060696;28;20226;-91
2022/12/19 03:59:20;;;;;;;27.25;14.45;;;-3.40;1.00;;;;;;5060164;28;20184;-90
2022/12/19 04:01:49;;;;;;;21.92;12.90;;;-3.50;1.00;;;;;;5060184;28;20251;-90
2022/12/19 04:04:20;;;;;;;30.10;14.90;;;-3.40;1.00;;;;;;5061350;28;20213;-91
2022/12/19 04:06:59;;;;;;;26.92;14.68;;;-3.40;1.00;;;;;;5071877;28;20252;-92
2022/12/19 04:09:27;;;;;;;33.28;15.73;;;;;;;;;;5080345;28;20191;-90
2022/12/19 04:11:58;;;;;;;31.55;14.98;;;-3.40;1.00;;;;;;5080143;28;20236;-90
2022/12/19 04:14:29;;;;;;;30.70;15.02;;;-3.40;1.00;;;;;;5067884;28;20247;-90
2022/12/19 04:17:04;;;;;;;30.08;15.75;;;-3.40;1.00;;;;;;5059724;28;20237;-89
2022/12/19 04:19:37;;;;;;;29.90;17.00;;;-3.40;1.00;;;;;;5060418;28;20207;-91
2022/12/19 04:22:10;;;;;;;30.65;15.05;;;-3.40;1.00;;;;;;5060653;28;20210;-91
2022/12/19 04:24:42;;;;;;;28.05;15.82;;;-3.40;1.00;;;;;;5060353;28;20217;-91
2022/12/19 04:27:11;;;;;;;35.95;15.98;;;-3.40;1.00;;;;;;5059211;28;20537;-91
2022/12/19 04:29:39;;;;;;;43.00;19.83;;;;;;;;;;5076847;28;20255;-91
2022/12/19 04:32:10;;;;;;;25.20;14.52;;;-3.40;1.00;;;;;;5078345;28;20234;-91
2022/12/19 04:34:37;;;;;;;28.15;15.13;;;;;;;;;;5077205;28;20225;-91
2022/12/19 04:37:07;;;;;;;28.20;13.68;;;;;;;;;;5075938;28;20258;-90
2022/12/19 04:39:38;;;;;;;29.25;14.80;;;;;;;;;;5079226;28;20205;-91
2022/12/19 04:42:05;;;;;;;27.90;15.75;;;;;;;;;;5078788;28;20194;-91
2022/12/19 04:44:32;;;;;;;39.47;16.75;;;;;;;;;;5077985;28;20273;-91
2022/12/19 04:47:00;;;;;;;28.88;14.52;;;;;;;;;;5073623;28;20244;-91
2022/12/19 04:49:27;;;;;;;34.03;15.35;;;;;;;;;;5059931;28;20722;-91
2022/12/19 04:51:55;;;;;;;30.80;15.38;;;;;;;;;;5059996;28;20240;-91
2022/12/19 04:54:26;;;;;;;28.60;15.88;;;;;;;;;;5058788;28;20543;-92
2022/12/19 04:56:55;;;;;;;31.40;16.38;;;;;;;;;;5059569;28;20224;-92
2022/12/19 04:59:28;;;;;;;35.30;16.85;;;;;;;;;;5068157;28;20208;-92
2022/12/19 05:01:56;;;;;;;29.95;14.32;;;;;;;;;;5070451;28;20273;-91
2022/12/19 05:04:24;;;;;;;28.27;12.77;;;;;;;;;;5069806;28;20210;-90
2022/12/19 05:06:51;;;;;;;29.10;16.80;;;;;;;;;;5066800;28;20229;-90
2022/12/19 05:09:18;;;;;;;36.28;16.42;;;;;;;;;;5065783;28;20201;-90
2022/12/19 05:11:47;;;;;;;31.70;17.27;;;-3.40;1.00;;;;;;5067418;28;20222;-89
2022/12/19 05:17:58;;;;;;;31.50;14.55;;;;;;;;;;4943387;29;20608;-90
2022/12/19 05:20:25;;;;;;;32.70;15.95;;;;;;;;;;4941807;28;20556;-90
2022/12/19 05:28:21;;;;;;;30.73;15.73;;;;;;;;;;5115281;22;20417;-92
2022/12/19 05:30:48;;;;;;;38.95;17.45;;;;;;;;;;5098350;28;20211;-92
2022/12/19 05:33:17;;;;;;;30.65;15.50;;;;;;;;;;5098031;28;20299;-91
2022/12/19 05:35:44;;;;;;;41.78;21.00;;;;;;;;;;5096400;28;20430;-91
2022/12/19 05:38:11;;;;;;;35.25;19.52;;;;;;;;;;5097365;28;20463;-93
2022/12/19 05:40:38;;;;;;;35.85;16.73;;;-3.20;1.00;;;;;;5117714;22;20279;-86
2022/12/19 05:43:06;;;;;;;30.65;16.10;;;;;;;;;;5083618;28;20526;-87
2022/12/19 05:45:34;;;;;;;39.35;15.77;;;-3.40;1.00;;;;;;5079374;28;20209;-86
2022/12/19 05:48:02;;;;;;;23.10;14.05;;;;;;;;;;5079757;28;20725;-87
2022/12/19 05:50:29;;;;;;;28.08;15.55;;;;;;;;;;5077227;28;20220;-87
2022/12/19 05:52:56;;;;;;;28.65;15.18;;;;;;;;;;5084961;28;20238;-88
2022/12/19 05:55:30;;;;;;;34.30;14.73;;;;;;;;;;5088721;28;20251;-87
2022/12/19 05:58:05;;;;;;;27.58;14.20;;;;;;;;;;5083518;28;20225;-87
2022/12/19 06:00:32;;;;;;;29.25;14.25;;;;;;;;;;5076541;28;20223;-87
2022/12/19 06:03:01;;;;;;;30.48;17.50;;;;;;;;;;5078761;28;20438;-87
2022/12/19 06:05:29;;;;;;;33.92;16.70;;;;;;;;;;5080121;28;20240;-87
2022/12/19 06:07:57;;;;;;;35.13;16.00;;;;;;;;;;5078107;28;20296;-87
2022/12/19 06:10:29;;;;;;;30.83;16.23;;;;;;;;;;5081319;28;20269;-87
2022/12/19 06:12:56;;;;;;;30.17;15.75;;;;;;;;;;5080365;28;20236;-88
2022/12/19 06:15:29;;;;;;;26.27;14.98;;;;;;;;;;5079141;28;20640;-87
2022/12/19 06:17:56;;;;;;;27.40;14.57;;;;;;;;;;5076190;28;20648;-87
2022/12/19 06:20:36;;;;;;;32.63;16.48;;;;;;;;;;5084325;22;20274;-88
2022/12/19 06:23:16;;;;;;;29.70;16.08;;;;;;;;;;5055420;28;20308;-87
2022/12/19 06:25:43;;;;;;;24.65;14.27;;;;;;;;;;5056451;28;20268;-87
2022/12/19 06:28:11;;;;;;;32.60;16.45;;;;;;;;;;5037652;28;20237;-87
2022/12/19 06:30:39;;;;;;;23.35;12.95;;;;;;;;;;5056094;28;20260;-87
2022/12/19 06:49:19;;;;;;;26.17;15.15;;;;;;;;;;4891574;29;20227;-89
2022/12/19 06:55:17;;;;;;;25.42;13.75;;;;;;;;;;4888025;29;20258;-87
2022/12/19 06:57:45;;;;;;;29.58;13.70;;;;;;;;;;5015109;28;20274;-89
2022/12/19 07:00:13;;;;;;;28.25;14.93;;;;;;;;;;5069326;28;20210;-87
2022/12/19 07:05:54;;;;;;;26.83;14.25;;;;;;;;;;5070626;28;20210;-87
2022/12/19 07:08:30;;;;;;;42.00;21.60;;;;;;;;;;5076630;28;20629;-87
2022/12/19 07:11:06;;;;;;;26.00;15.90;;;;;;;;;;5079660;28;20223;-86
2022/12/19 07:13:46;;;;;;;25.65;13.75;;;;;;;;;;5075580;28;20234;-87
2022/12/19 07:16:41;;;;;;;30.23;14.40;;;;;;;;;;5068238;28;20217;-88
2022/12/19 07:23:17;;;;;;;25.83;13.43;;;-2.40;99.90;;;;;;5061129;28;20195;-88
2022/12/19 07:29:27;;;;;;;23.15;13.73;;;;;;;;;;4997447;28;20206;-87
2022/12/19 07:32:03;;;;;;;30.70;14.30;;;;;;;;;;5069375;28;20703;-90
2022/12/19 07:37:29;;;;;;;31.35;14.63;;;;;;;;;;5064300;28;20254;-88
2022/12/19 07:40:19;;;;;;;22.50;12.38;;;-2.30;99.90;;;;;;5064399;28;20549;-89
2022/12/19 07:46:15;;;;;;;30.95;16.27;;;;;;;;;;5048456;28;20233;-88
2022/12/19 08:35:25;;;;;;;25.35;14.05;;;-1.60;1.00;;;;;;4808570;29;20224;-84
2022/12/19 08:48:36;;;;;;;;;;;;;;;;;;;;;
2022/12/19 09:15:51;;;;;;;26.73;14.10;;;-1.10;1.00;;;;;;4766021;30;20208;-86
2022/12/19 09:58:20;;;;;;;28.52;15.40;;;-0.30;99.90;;;;;;4848277;26;20617;-90
2022/12/19 10:00:52;;;;;;;27.98;13.45;;;-0.20;99.90;;;;;;5061037;28;20191;-90
2022/12/19 10:03:24;;;;;;;29.50;14.50;;;-0.10;99.90;;;;;;5071983;28;20226;-90
2022/12/19 10:05:55;;;;;;;28.65;14.50;;;-0.10;99.90;;;;;;5071730;28;20230;-90
2022/12/19 10:08:30;;;;;;;29.77;15.00;;;;;;;;;;5073630;28;20638;-90
2022/12/19 10:11:10;;;;;;;28.40;14.07;;;0.00;99.90;;;;;;5072405;28;20218;-90
2022/12/19 10:13:54;;;;;;;36.15;16.38;;;0.10;99.90;;;;;;5070549;28;20183;-90
2022/12/19 10:16:30;;;;;;;25.42;14.43;;;0.20;1.00;;;;;;5070802;28;20287;-89
2022/12/19 10:19:03;;;;;;;33.25;18.25;;;0.30;13.80;;;;;;5071350;28;20428;-90
2022/12/19 10:21:42;;;;;;;30.38;15.93;;;0.30;1.00;;;;;;5078715;28;20191;-89
2022/12/19 10:24:30;;;;;;;26.60;13.80;;;0.40;1.00;;;;;;5077145;28;20279;-90
2022/12/19 10:27:00;;;;;;;26.48;14.52;;;0.40;1.00;;;;;;5067127;28;20223;-90
2022/12/19 10:29:47;;;;;;;29.48;16.40;;;0.40;1.00;;;;;;5063078;28;20215;-90
2022/12/19 10:32:22;;;;;;;25.88;13.45;;;0.80;99.90;;;;;;5064661;28;20273;-90
2022/12/19 10:34:50;;;;;;;32.10;15.27;;;0.50;1.00;;;;;;5063233;28;20291;-90
2022/12/19 10:37:22;;;;;;;27.95;14.55;;;0.20;99.90;;;;;;5066099;28;20230;-90
2022/12/19 10:39:59;;;;;;;29.65;14.77;;;0.60;1.00;;;;;;5063748;28;20183;-90
2022/12/19 10:42:34;;;;;;;35.83;14.73;;;1.00;99.90;;;;;;5067821;28;20289;-90
2022/12/19 10:45:13;;;;;;;31.02;15.95;;;0.70;1.00;;;;;;5069100;28;20199;-90
2022/12/19 10:47:41;;;;;;;30.48;15.48;;;;;;;;;;5067442;28;20305;-89
2022/12/19 10:50:20;;;;;;;27.20;13.55;;;0.80;1.00;;;;;;5067176;28;20235;-90
2022/12/19 10:52:51;;;;;;;24.88;12.68;;;;;;;;;;5072955;28;20233;-90
2022/12/19 10:55:49;;;;;;;21.77;11.50;;;0.90;1.00;;;;;;5071527;28;20191;-90
2022/12/19 10:58:23;;;;;;;30.65;14.60;;;0.90;1.00;;;;;;5074435;28;20200;-90
2022/12/19 11:01:10;;;;;;;20.75;13.00;;;1.10;1.00;;;;;;5065132;28;20263;-89
2022/12/19 11:03:38;;;;;;;34.90;16.45;;;;;;;;;;5060398;28;20267;-90
2022/12/19 11:06:06;;;;;;;26.05;14.20;;;1.10;99.90;;;;;;5060787;28;20342;-90
2022/12/19 11:08:38;;;;;;;28.33;14.73;;;;;;;;;;5062333;28;20207;-89
2022/12/19 11:11:13;;;;;;;28.83;14.27;;;1.10;99.90;;;;;;5073376;28;20214;-90
2022/12/19 11:13:43;;;;;;;22.70;13.05;;;1.20;1.00;;;;;;5067771;28;20210;-89
2022/12/19 11:16:12;;;;;;;26.40;13.95;;;1.20;1.00;;;;;;5069030;28;20250;-90
2022/12/19 11:18:41;;;;;;;27.55;17.63;;;1.40;99.90;;;;;;5066535;28;20294;-90
2022/12/19 11:21:17;;;;;;;31.70;14.70;;;1.10;99.90;;;;;;5063591;28;20677;-90
2022/12/19 11:23:51;;;;;;;27.75;16.48;;;0.70;99.90;;;;;;5059234;28;20194;-90
2022/12/19 11:26:44;;;;;;;20.52;13.55;;;0.90;99.90;;;;;;5061523;28;20305;-90
2022/12/19 11:29:20;;;;;;;27.50;15.20;;;1.10;99.90;;;;;;5062226;28;20259;-90
2022/12/19 11:31:53;;;;;;;30.90;15.45;;;1.40;99.90;;;;;;5058125;28;20258;-90
2022/12/19 11:34:22;;;;;;;26.25;13.95;;;0.80;1.00;;;;;;5057427;28;20278;-90
2022/12/19 11:36:57;;;;;;;24.77;14.15;;;0.70;1.00;;;;;;5059159;28;20702;-90
2022/12/19 11:39:35;;;;;;;27.10;13.50;;;1.00;99.90;;;;;;5061845;28;20640;-91
2022/12/19 11:42:10;;;;;;;30.92;14.77;;;1.20;96.00;;;;;;5061519;28;20179;-90
2022/12/19 11:44:44;;;;;;;27.10;15.80;;;1.30;1.00;;;;;;5060486;28;20203;-91
2022/12/19 11:47:40;;;;;;;26.48;16.25;;;;;;;;;;5060756;28;20256;-91
2022/12/19 11:50:16;;;;;;;33.25;16.88;;;;;;;;;;5063576;28;20532;-90
2022/12/19 11:52:52;;;;;;;28.35;14.63;;;1.00;99.90;;;;;;5071657;28;20203;-89
2022/12/19 12:01:14;;;;;;;27.38;15.65;;;1.00;99.90;;;;;;5070693;28;20307;-91
2022/12/19 12:04:11;;;;;;;27.90;15.27;;;1.00;99.90;;;;;;5086186;28;20722;-90
2022/12/19 12:06:52;;;;;;;27.92;15.25;;;1.00;1.00;;;;;;5081091;28;20234;-91
2022/12/19 12:37:59;;;;;;;30.05;14.65;;;1.10;99.90;;;;;;4931092;29;20625;-86
2022/12/19 15:00:21;;;;;;;37.72;21.73;;;;;;;;;;5113119;22;20287;-91
2022/12/19 15:02:59;;;;;;;36.20;21.20;;;;;;;;;;5087073;28;20258;-91
2022/12/19 15:08:45;;;;;;;35.25;19.50;;;2.20;99.90;;;;;;5081631;28;20234;-91
2022/12/19 15:14:20;;;;;;;31.73;16.70;;;;;;;;;;5088979;28;20715;-90
2022/12/19 15:17:20;;;;;;;37.83;18.67;;;2.20;99.90;;;;;;5085049;28;20202;-91
2022/12/19 15:20:16;;;;;;;32.20;18.95;;;2.20;99.90;;;;;;5088343;28;20249;-92
2022/12/19 15:26:13;;;;;;;42.55;21.05;;;2.30;99.90;;;;;;5086115;28;20242;-91
2022/12/19 15:28:47;;;;;;;42.92;19.38;;;2.30;99.90;;;;;;5096284;28;20233;-91
2022/12/19 15:31:51;;;;;;;36.83;18.98;;;2.30;99.90;;;;;;5089196;28;20237;-91
2022/12/19 15:35:00;;;;;;;;;;;;;;;;;;;;;
2022/12/19 15:37:56;;;;;;;33.38;19.42;;;2.30;99.90;;;;;;5087371;28;20205;-92
2022/12/19 15:40:44;;;;;;;33.25;20.15;;;;;;;;;;5087598;28;20210;-91
2022/12/19 15:54:30;;;;;;;37.45;18.55;;;;;;;;;;4925327;29;20287;-91
2022/12/19 16:32:12;;;;;;;43.25;21.02;;;2.70;99.90;;;;;;4251081;26;20255;-92
2022/12/19 18:30:35;;;;;;;40.63;22.35;;;;;;;;;;4945059;28;20257;-93
2022/12/19 18:47:49;;;;;;;;;;;;;;;;;;;;;
2022/12/19 19:49:35;;;;;;;38.55;21.92;;;;;;;;;;5025071;28;20197;-88
2022/12/19 19:52:02;;;;;;;40.13;22.05;;;;;;;;;;5084967;28;20202;-90
2022/12/19 19:54:40;;;;;;;43.80;22.65;;;;;;;;;;5088346;28;20222;-90
2022/12/19 19:57:37;;;;;;;39.78;20.08;;;3.60;99.90;;;;;;5097778;28;20262;-92
2022/12/19 20:00:15;;;;;;;41.90;21.60;;;;;;;;;;5098482;28;20247;-90
2022/12/19 20:02:46;;;;;;;39.88;21.48;;;;;;;;;;5100115;28;20234;-88
2022/12/19 20:05:19;;;;;;;36.42;16.98;;;;;;;;;;5099906;28;20210;-90
2022/12/19 20:07:56;;;;;;;37.40;19.42;;;;;;;;;;5099194;28;20183;-91
2022/12/19 20:10:26;;;;;;;40.20;21.88;;;;;;;;;;5098134;28;20219;-91
2022/12/19 20:13:01;;;;;;;32.35;18.60;;;;;;;;;;5085048;28;20211;-92
2022/12/19 20:15:35;;;;;;;38.22;21.15;;;;;;;;;;5088382;28;20205;-90
2022/12/19 20:18:02;;;;;;;36.22;21.17;;;;;;;;;;5086680;28;20564;-91
2022/12/19 20:20:32;;;;;;;39.35;20.58;;;;;;;;;;5082496;28;20281;-90
2022/12/19 20:23:01;;;;;;;32.63;18.67;;;;;;;;;;5081744;28;20223;-90
2022/12/19 20:25:38;;;;;;;34.95;20.15;;;3.60;99.90;;;;;;5081967;28;20233;-91
2022/12/19 20:28:26;;;;;;;38.83;22.10;;;;;;;;;;5083208;28;20182;-90
2022/12/19 20:31:02;;;;;;;36.92;18.05;;;;;;;;;;5086139;28;20202;-90
2022/12/19 20:33:33;;;;;;;34.67;19.90;;;;;;;;;;5084295;28;20229;-91
2022/12/19 20:36:16;;;;;;;41.67;20.58;;;;;;;;;;5082996;28;20207;-91
2022/12/19 20:38:55;;;;;;;33.72;17.55;;;;;;;;;;5083584;28;20210;-91
2022/12/19 20:44:24;;;;;;;32.38;18.13;;;;;;;;;;5054002;28;20312;-91
2022/12/19 20:46:59;;;;;;;38.30;18.00;;;;;;;;;;5082705;28;20186;-91
2022/12/19 20:58:24;;;;;;;35.10;18.05;;;;;;;;;;5087589;28;20222;-91
2022/12/19 21:00:56;;;;;;;32.58;19.98;;;;;;;;;;5096558;28;20191;-90
2022/12/19 21:03:28;;;;;;;29.75;18.27;;;;;;;;;;5096964;28;20210;-91
2022/12/19 21:08:52;;;;;;;30.13;18.67;;;;;;;;;;5092653;28;20209;-92
2022/12/19 21:11:27;;;;;;;32.38;18.10;;;;;;;;;;5085217;28;20199;-92
2022/12/19 21:14:02;;;;;;;28.20;16.00;;;;;;;;;;5085516;28;20237;-89
2022/12/19 21:16:32;;;;;;;27.15;15.98;;;;;;;;;;5084018;28;20221;-90
2022/12/19 21:19:08;;;;;;;24.88;16.42;;;;;;;;;;5081819;28;20298;-91
2022/12/19 21:21:58;;;;;;;32.80;19.08;;;;;;;;;;5083614;28;20212;-91
2022/12/19 21:29:59;;;;;;;31.60;19.00;;;;;;;;;;5081058;28;20206;-91
2022/12/19 21:32:39;;;;;;;37.08;20.10;;;;;;;;;;5083355;28;20248;-92
2022/12/19 21:37:58;;;;;;;31.48;17.05;;;;;;;;;;5077178;28;20671;-91
2022/12/19 21:40:33;;;;;;;32.97;17.75;;;;;;;;;;5093473;28;20266;-91
2022/12/19 21:43:07;;;;;;;36.78;19.60;;;;;;;;;;5082685;28;20696;-91
2022/12/19 21:45:46;;;;;;;32.60;18.20;;;;;;;;;;5079937;28;20225;-90
2022/12/19 21:48:40;;;;;;;34.25;19.60;;;;;;;;;;5082285;28;20199;-91
2022/12/19 21:51:39;;;;;;;32.88;18.33;;;3.00;99.90;;;;;;5097929;28;20210;-90
2022/12/19 21:54:27;;;;;;;29.15;18.20;;;;;;;;;;5097782;28;20274;-90
2022/12/19 22:02:52;;;;;;;31.75;18.67;;;;;;;;;;5085703;28;20210;-90
2022/12/19 22:05:23;;;;;;;37.30;19.15;;;;;;;;;;5095346;28;20278;-90
2022/12/19 22:07:51;;;;;;;32.13;17.98;;;;;;;;;;5098251;28;20208;-90
2022/12/19 22:10:30;;;;;;;28.02;17.65;;;;;;;;;;5097769;28;20258;-89
2022/12/19 22:16:17;;;;;;;31.90;17.05;;;;;;;;;;5078409;28;20214;-90
2022/12/19 22:18:53;;;;;;;28.98;17.58;;;;;;;;;;5095178;28;20181;-90
2022/12/19 22:21:35;;;;;;;27.88;17.58;;;;;;;;;;5094810;28;20202;-91
2022/12/19 22:24:14;;;;;;;33.75;16.58;;;;;;;;;;5094112;28;20285;-91
2022/12/19 22:26:49;;;;;;;28.50;18.13;;;;;;;;;;5085653;28;20217;-91
2022/12/19 22:29:20;;;;;;;29.00;16.73;;;3.30;99.90;;;;;;5092820;28;20190;-89
2022/12/19 22:31:50;;;;;;;24.33;17.67;;;;;;;;;;5097978;28;20175;-90
2022/12/19 22:34:36;;;;;;;28.05;16.95;;;;;;;;;;5097949;28;20222;-91
2022/12/19 22:37:11;;;;;;;25.92;15.68;;;;;;;;;;5081805;28;20641;-92
2022/12/19 22:39:39;;;;;;;32.72;18.58;;;;;;;;;;5076683;28;20202;-91
2022/12/19 22:42:06;;;;;;;32.65;19.05;;;;;;;;;;5077765;28;20266;-91
2022/12/19 22:44:34;;;;;;;28.80;16.23;;;;;;;;;;5076178;28;20230;-91
2022/12/19 22:47:01;;;;;;;26.05;16.38;;;;;;;;;;5081008;28;20238;-91
2022/12/19 22:49:33;;;;;;;26.25;16.63;;;;;;;;;;5083138;28;20209;-90
2022/12/19 22:52:00;;;;;;;35.45;16.50;;;;;;;;;;5077126;28;20237;-91
2022/12/19 22:54:27;;;;;;;25.10;15.80;;;;;;;;;;5077809;28;20261;-91
2022/12/19 22:56:59;;;;;;;28.58;16.25;;;;;;;;;;5080388;28;20203;-91
2022/12/19 22:59:34;;;;;;;30.40;16.67;;;;;;;;;;5089697;28;20229;-91
2022/12/19 23:02:08;;;;;;;25.67;15.93;;;;;;;;;;5090614;28;20206;-92
2022/12/19 23:04:44;;;;;;;25.45;15.80;;;;;;;;;;5091412;28;20252;-91
2022/12/19 23:07:11;;;;;;;26.27;15.45;;;;;;;;;;5094005;28;20190;-91
2022/12/19 23:09:46;;;;;;;27.38;16.40;;;;;;;;;;5095190;28;20237;-91
2022/12/19 23:12:32;;;;;;;29.45;15.70;;;;;;;;;;5097254;28;20186;-90
2022/12/19 23:15:13;;;;;;;25.52;15.93;;;;;;;;;;5095952;28;20183;-91
2022/12/19 23:17:45;;;;;;;29.33;17.50;;;;;;;;;;5097519;28;20297;-91
2022/12/19 23:20:16;;;;;;;30.33;16.02;;;;;;;;;;5084495;28;20179;-91
2022/12/19 23:22:49;;;;;;;33.63;17.15;;;;;;;;;;5082446;28;20206;-91
2022/12/19 23:25:16;;;;;;;25.30;17.17;;;;;;;;;;5081316;28;20253;-91
2022/12/19 23:27:46;;;;;;;25.85;15.07;;;;;;;;;;5076196;28;20209;-92
2022/12/19 23:30:14;;;;;;;24.92;15.95;;;3.40;99.90;;;;;;5079811;28;20585;-91
2022/12/19 23:32:54;;;;;;;23.92;15.80;;;;;;;;;;5080915;28;20703;-91
2022/12/19 23:35:26;;;;;;;26.90;16.17;;;;;;;;;;5080209;28;20183;-91
2022/12/19 23:37:58;;;;;;;27.38;17.30;;;;;;;;;;5080097;28;20210;-91
2022/12/19 23:40:28;;;;;;;28.48;16.08;;;;;;;;;;5083208;28;20266;-91
2022/12/19 23:42:59;;;;;;;31.33;14.70;;;;;;;;;;5079870;28;20221;-91
2022/12/19 23:45:28;;;;;;;25.80;14.98;;;;;;;;;;5083853;28;20227;-91
2022/12/19 23:48:17;;;;;;;27.75;15.27;;;;;;;;;;5082680;28;20200;-91
2022/12/19 23:50:52;;;;;;;29.63;17.38;;;;;;;;;;5086389;28;20179;-91
2022/12/19 23:53:28;;;;;;;33.00;16.60;;;;;;;;;;5081392;28;20225;-91
2022/12/19 23:56:01;;;;;;;25.80;15.23;;;;;;;;;;5080724;28;20218;-91
